Time;durP1;ratioP1;P1;durP2;ratioP2;P2;SDS_P1;SDS_P2;PMS_P1;PMS_P2;Temp;Humidity;BMP_temperature;BMP_pressure;BME280_temperature;BME280_humidity;BME280_pressure;Samples;Min_cycle;Max_cycle;Signal;HPM_P1;HPM_P2
2021/12/25 00:02:10;;;;;;;5.65;5.20;;;9.60;99.90;;;;;;5013199;28;20230;-83
2021/12/25 00:04:37;;;;;;;6.88;6.28;;;9.70;99.90;;;;;;5000005;28;20259;-84
2021/12/25 00:07:04;;;;;;;6.32;5.72;;;9.70;99.90;;;;;;5005360;28;20199;-84
2021/12/25 00:09:32;;;;;;;6.53;5.00;;;9.60;99.90;;;;;;5019551;28;20280;-82
2021/12/25 00:11:59;;;;;;;7.13;6.43;;;9.70;99.90;;;;;;5015325;28;20220;-82
2021/12/25 00:14:25;;;;;;;5.70;5.20;;;9.60;99.90;;;;;;5000216;28;20209;-84
2021/12/25 00:16:53;;;;;;;5.40;4.90;;;9.50;99.90;;;;;;5005216;28;20224;-84
2021/12/25 00:19:20;;;;;;;6.78;6.07;;;9.40;99.90;;;;;;5020492;28;20211;-84
2021/12/25 00:21:46;;;;;;;5.78;5.28;;;9.40;99.90;;;;;;5001070;28;20213;-84
2021/12/25 00:24:13;;;;;;;6.68;6.10;;;9.30;99.90;;;;;;5000764;28;20208;-83
2021/12/25 00:26:49;;;;;;;6.35;5.75;;;9.20;99.90;;;;;;5019925;28;20199;-83
2021/12/25 00:29:37;;;;;;;7.20;6.45;;;9.20;99.90;;;;;;5020560;28;20245;-84
2021/12/25 00:32:35;;;;;;;6.70;6.00;;;9.10;99.90;;;;;;5025916;28;20251;-84
2021/12/25 00:35:02;;;;;;;7.95;7.25;;;9.00;99.90;;;;;;5014919;28;20235;-83
2021/12/25 00:37:28;;;;;;;7.22;5.85;;;9.10;99.90;;;;;;5010077;28;20238;-83
2021/12/25 00:39:56;;;;;;;6.80;6.05;;;9.10;99.90;;;;;;5021193;28;20251;-84
2021/12/25 00:42:24;;;;;;;6.43;5.93;;;9.20;99.90;;;;;;5029235;28;20234;-83
2021/12/25 00:44:51;;;;;;;9.35;8.38;;;9.10;99.90;;;;;;5029592;28;20199;-83
2021/12/25 00:47:17;;;;;;;7.13;6.43;;;9.20;99.90;;;;;;5024041;28;20697;-82
2021/12/25 00:49:44;;;;;;;6.95;6.32;;;9.30;99.90;;;;;;4981261;28;20209;-84
2021/12/25 00:52:11;;;;;;;6.10;5.55;;;9.30;99.90;;;;;;4981245;28;20636;-84
2021/12/25 00:54:37;;;;;;;7.10;5.80;;;9.40;99.90;;;;;;5018084;28;20254;-84
2021/12/25 00:57:04;;;;;;;6.95;6.25;;;9.50;99.90;;;;;;5019939;28;20236;-84
2021/12/25 00:59:32;;;;;;;9.45;6.80;;;9.30;99.90;;;;;;5002703;28;20679;-84
2021/12/25 01:01:59;;;;;;;7.32;6.43;;;9.40;99.90;;;;;;5000057;28;20244;-84
2021/12/25 01:04:26;;;;;;;7.07;6.47;;;9.30;99.90;;;;;;5015422;28;20688;-82
2021/12/25 01:06:53;;;;;;;7.00;6.45;;;9.40;99.90;;;;;;5019690;28;20212;-84
2021/12/25 01:09:20;;;;;;;6.32;5.72;;;9.50;99.90;;;;;;5005109;28;20833;-84
2021/12/25 01:11:49;;;;;;;7.30;6.60;;;9.50;99.90;;;;;;5000128;28;20208;-84
2021/12/25 01:14:25;;;;;;;7.05;5.88;;;9.50;99.90;;;;;;5012751;28;20263;-83
2021/12/25 01:17:16;;;;;;;6.65;5.95;;;9.50;99.90;;;;;;5006932;28;20222;-84
2021/12/25 01:23:09;;;;;;;6.55;5.85;;;9.60;99.90;;;;;;5016145;28;20277;-84
2021/12/25 01:26:01;;;;;;;8.55;7.40;;;9.60;99.90;;;;;;5001443;28;20303;-84
2021/12/25 01:29:08;;;;;;;6.88;5.88;;;9.60;99.90;;;;;;5001736;28;20219;-84
2021/12/25 01:31:39;;;;;;;8.90;8.00;;;9.60;99.90;;;;;;5019920;28;20213;-85
2021/12/25 01:34:34;;;;;;;7.57;6.80;;;9.60;99.90;;;;;;5013288;28;20208;-83
2021/12/25 01:37:07;;;;;;;10.02;7.35;;;9.50;99.90;;;;;;4999955;28;20284;-85
2021/12/25 01:39:51;;;;;;;8.30;7.38;;;9.40;99.90;;;;;;5004817;28;20580;-84
2021/12/25 01:47:49;;;;;;;10.27;7.05;;;9.40;99.90;;;;;;4999293;28;20750;-84
2021/12/25 01:50:19;;;;;;;7.70;6.93;;;9.20;99.90;;;;;;5012020;28;20203;-84
2021/12/25 01:52:46;;;;;;;7.68;6.88;;;9.30;99.90;;;;;;5018262;28;20250;-84
2021/12/25 01:55:15;;;;;;;7.47;6.57;;;9.30;99.90;;;;;;5006269;28;20745;-85
2021/12/25 01:57:42;;;;;;;7.38;6.57;;;9.20;99.90;;;;;;4999016;28;20716;-85
2021/12/25 02:00:13;;;;;;;10.35;6.68;;;9.20;99.90;;;;;;5010118;28;20274;-85
2021/12/25 02:02:40;;;;;;;6.72;6.20;;;9.20;99.90;;;;;;5018645;28;20232;-85
2021/12/25 02:05:08;;;;;;;6.43;5.80;;;9.10;99.90;;;;;;5007921;28;20542;-85
2021/12/25 02:07:36;;;;;;;8.82;7.25;;;9.20;99.90;;;;;;4999592;28;20685;-84
2021/12/25 02:10:05;;;;;;;8.25;7.03;;;9.20;99.90;;;;;;5008520;28;20210;-84
2021/12/25 02:12:33;;;;;;;8.88;6.60;;;9.20;99.90;;;;;;5018919;28;20230;-83
2021/12/25 02:15:04;;;;;;;6.55;5.95;;;9.20;99.90;;;;;;5004988;28;20208;-84
2021/12/25 02:17:48;;;;;;;6.60;5.93;;;9.00;99.90;;;;;;4999600;28;20239;-85
2021/12/25 02:20:22;;;;;;;6.95;6.25;;;9.00;99.90;;;;;;5014089;28;20207;-85
2021/12/25 02:22:51;;;;;;;7.78;6.32;;;9.00;99.90;;;;;;5018408;28;20227;-84
2021/12/25 02:25:17;;;;;;;10.15;7.85;;;8.80;99.90;;;;;;5003598;28;20271;-85
2021/12/25 02:27:45;;;;;;;7.57;6.82;;;8.80;99.90;;;;;;4999884;28;20215;-85
2021/12/25 02:30:12;;;;;;;7.90;7.20;;;8.80;99.90;;;;;;5012791;28;20613;-82
2021/12/25 02:32:39;;;;;;;11.20;7.82;;;8.60;99.90;;;;;;5017044;28;20219;-84
2021/12/25 02:35:06;;;;;;;8.77;7.82;;;8.60;99.90;;;;;;5019206;28;20717;-85
2021/12/25 02:37:34;;;;;;;8.48;7.75;;;8.60;99.90;;;;;;5006576;28;20231;-85
2021/12/25 02:40:01;;;;;;;9.65;8.48;;;8.50;99.90;;;;;;4999649;28;20235;-84
2021/12/25 02:42:28;;;;;;;9.38;7.65;;;8.50;99.90;;;;;;5008474;28;20229;-85
2021/12/25 02:44:55;;;;;;;10.90;9.25;;;8.40;99.90;;;;;;5019081;28;20213;-84
2021/12/25 02:47:21;;;;;;;11.07;9.30;;;8.50;99.90;;;;;;5009853;28;20191;-85
2021/12/25 02:49:49;;;;;;;11.23;8.07;;;8.40;99.90;;;;;;4999503;28;20584;-85
2021/12/25 02:52:16;;;;;;;9.20;7.47;;;8.40;99.90;;;;;;5005725;28;20223;-84
2021/12/25 02:54:45;;;;;;;9.38;7.88;;;8.40;99.90;;;;;;5017103;28;20207;-85
2021/12/25 02:57:12;;;;;;;8.93;8.02;;;8.40;99.90;;;;;;5011182;28;20701;-84
2021/12/25 02:59:39;;;;;;;12.95;8.57;;;8.40;99.90;;;;;;4999029;28;20203;-85
2021/12/25 03:02:08;;;;;;;8.60;7.80;;;8.60;99.90;;;;;;5002495;28;20230;-84
2021/12/25 03:04:36;;;;;;;8.45;7.55;;;8.50;99.90;;;;;;5006913;28;20664;-84
2021/12/25 03:07:04;;;;;;;9.10;6.93;;;8.60;99.90;;;;;;4998245;28;20567;-83
2021/12/25 03:09:30;;;;;;;7.68;6.88;;;8.60;99.90;;;;;;5000534;28;20740;-84
2021/12/25 03:11:59;;;;;;;8.63;7.55;;;8.60;99.90;;;;;;5017106;28;20751;-83
2021/12/25 03:14:34;;;;;;;7.13;6.35;;;8.70;99.90;;;;;;5016517;28;20209;-84
2021/12/25 03:17:01;;;;;;;7.72;6.93;;;8.80;99.90;;;;;;4998441;28;20223;-83
2021/12/25 03:19:32;;;;;;;8.65;7.00;;;8.70;99.90;;;;;;5017593;28;20207;-84
2021/12/25 03:22:00;;;;;;;5.97;5.45;;;8.70;99.90;;;;;;5024542;28;20229;-84
2021/12/25 03:24:27;;;;;;;7.60;6.72;;;8.70;99.90;;;;;;5011488;28;20268;-83
2021/12/25 03:26:55;;;;;;;9.35;6.22;;;8.70;99.90;;;;;;5002873;28;20207;-81
2021/12/25 03:29:24;;;;;;;7.47;6.30;;;8.60;99.90;;;;;;5011199;28;20207;-83
2021/12/25 03:31:51;;;;;;;8.82;6.30;;;8.60;99.90;;;;;;5021457;28;20222;-82
2021/12/25 03:34:19;;;;;;;8.30;7.47;;;8.60;99.90;;;;;;5004529;28;20239;-83
2021/12/25 03:36:46;;;;;;;7.93;7.15;;;8.50;99.90;;;;;;5002925;28;20227;-83
2021/12/25 03:39:13;;;;;;;9.82;8.57;;;8.40;99.90;;;;;;5016281;28;20569;-82
2021/12/25 03:41:40;;;;;;;9.57;8.27;;;8.30;99.90;;;;;;5018143;28;20204;-82
2021/12/25 03:44:07;;;;;;;9.63;8.18;;;8.30;99.90;;;;;;5018149;28;20213;-82
2021/12/25 03:46:38;;;;;;;9.43;8.05;;;8.20;99.90;;;;;;5018578;28;20199;-82
2021/12/25 03:49:09;;;;;;;6.50;6.00;;;8.20;99.90;;;;;;5004838;28;20276;-82
2021/12/25 03:59:58;;;;;;;7.00;4.80;;;8.10;99.90;;;;;;4998094;28;20202;-83
2021/12/25 04:02:33;;;;;;;4.18;3.80;;;8.00;99.90;;;;;;5005655;28;20222;-82
2021/12/25 04:05:02;;;;;;;3.83;3.33;;;8.00;99.90;;;;;;5019250;28;20195;-80
2021/12/25 04:07:54;;;;;;;4.72;4.05;;;7.90;99.90;;;;;;5011036;28;20229;-82
2021/12/25 04:10:21;;;;;;;7.60;3.60;;;7.90;99.90;;;;;;4999341;28;20212;-81
2021/12/25 04:12:47;;;;;;;4.30;3.63;;;8.10;99.90;;;;;;5001692;28;20224;-81
2021/12/25 04:15:14;;;;;;;5.03;3.20;;;8.20;99.90;;;;;;5003212;28;20204;-81
2021/12/25 04:17:42;;;;;;;4.80;3.45;;;8.20;99.90;;;;;;5003732;28;20290;-82
2021/12/25 04:20:10;;;;;;;4.55;3.80;;;8.30;99.90;;;;;;5007034;28;20211;-81
2021/12/25 04:22:44;;;;;;;4.22;3.60;;;8.40;99.90;;;;;;5021351;28;20241;-82
2021/12/25 04:25:11;;;;;;;3.55;3.25;;;8.50;99.90;;;;;;5015971;28;20207;-83
2021/12/25 04:27:38;;;;;;;3.85;3.55;;;8.70;99.90;;;;;;5009861;28;20203;-82
2021/12/25 04:30:19;;;;;;;4.30;4.00;;;8.80;99.90;;;;;;5015992;28;20267;-82
2021/12/25 04:33:26;;;;;;;4.25;3.95;;;8.80;99.90;;;;;;4986004;28;20423;-82
2021/12/25 05:03:39;;;;;;;6.28;5.65;;;8.90;99.90;;;;;;5001410;28;20235;-83
2021/12/25 05:06:07;;;;;;;6.53;5.22;;;8.80;99.90;;;;;;5006883;28;20664;-82
2021/12/25 05:08:34;;;;;;;6.50;5.97;;;8.80;99.90;;;;;;5020967;28;20287;-82
2021/12/25 05:11:01;;;;;;;7.47;6.15;;;8.70;99.90;;;;;;5015193;28;20200;-82
2021/12/25 05:13:28;;;;;;;8.20;6.10;;;8.70;99.90;;;;;;5000867;28;20736;-82
2021/12/25 05:15:55;;;;;;;8.73;6.22;;;8.70;99.90;;;;;;5004422;28;20208;-82
2021/12/25 05:18:22;;;;;;;6.22;5.68;;;8.70;99.90;;;;;;5020054;28;20210;-82
2021/12/25 05:20:48;;;;;;;6.00;5.43;;;8.70;99.90;;;;;;5010052;28;20216;-81
2021/12/25 05:23:17;;;;;;;6.20;5.03;;;8.80;99.90;;;;;;5000939;28;20568;-82
2021/12/25 05:25:43;;;;;;;10.05;6.10;;;8.80;99.90;;;;;;5009280;28;20203;-82
2021/12/25 05:28:12;;;;;;;8.13;6.60;;;8.80;99.90;;;;;;5020454;28;20202;-82
2021/12/25 05:30:40;;;;;;;7.20;6.30;;;8.80;99.90;;;;;;5019092;28;20744;-82
2021/12/25 05:33:07;;;;;;;7.25;6.55;;;8.90;99.90;;;;;;5019781;28;20234;-81
2021/12/25 05:35:34;;;;;;;6.95;5.72;;;8.90;99.90;;;;;;5013603;28;20211;-82
2021/12/25 05:38:01;;;;;;;8.60;6.90;;;8.90;99.90;;;;;;5000788;28;20239;-81
2021/12/25 05:40:29;;;;;;;7.32;6.70;;;8.80;99.90;;;;;;5001004;28;20227;-81
2021/12/25 05:42:56;;;;;;;8.73;7.13;;;8.80;99.90;;;;;;5010298;28;20634;-82
2021/12/25 05:45:23;;;;;;;10.02;9.05;;;8.70;99.90;;;;;;5000121;28;20219;-82
2021/12/25 05:47:49;;;;;;;8.60;7.70;;;8.60;99.90;;;;;;5000575;28;20199;-82
2021/12/25 05:50:16;;;;;;;10.23;7.40;;;8.60;99.90;;;;;;5002064;28;20595;-82
2021/12/25 05:52:43;;;;;;;7.88;7.10;;;8.50;99.90;;;;;;5020513;28;20241;-83
2021/12/25 05:55:10;;;;;;;9.27;7.25;;;8.50;99.90;;;;;;5018758;28;20214;-82
2021/12/25 05:57:38;;;;;;;10.82;8.70;;;8.40;99.90;;;;;;5000567;28;20227;-82
2021/12/25 06:00:07;;;;;;;9.88;8.73;;;8.30;99.90;;;;;;5001822;28;20212;-82
2021/12/25 06:02:35;;;;;;;8.55;7.70;;;8.30;99.90;;;;;;5019488;28;20249;-81
2021/12/25 06:05:04;;;;;;;10.40;7.95;;;8.30;99.90;;;;;;5017204;28;20580;-82
2021/12/25 06:07:30;;;;;;;11.15;8.35;;;8.40;99.90;;;;;;4999793;28;20271;-82
2021/12/25 06:09:57;;;;;;;10.55;9.45;;;8.30;99.90;;;;;;5005142;28;20207;-83
2021/12/25 06:12:24;;;;;;;12.15;8.27;;;8.30;99.90;;;;;;5018834;28;20227;-82
2021/12/25 06:14:54;;;;;;;9.93;7.03;;;8.30;99.90;;;;;;5015086;28;20634;-82
2021/12/25 06:17:21;;;;;;;9.63;7.85;;;8.30;99.90;;;;;;4999973;28;20228;-82
2021/12/25 06:19:47;;;;;;;9.85;8.75;;;8.30;99.90;;;;;;5002822;28;20199;-82
2021/12/25 06:22:14;;;;;;;10.85;8.60;;;8.20;99.90;;;;;;5018856;28;20231;-82
2021/12/25 06:24:43;;;;;;;13.30;9.55;;;8.20;99.90;;;;;;5016404;28;20214;-82
2021/12/25 06:27:10;;;;;;;14.93;10.13;;;8.20;99.90;;;;;;5000050;28;20206;-81
2021/12/25 06:29:37;;;;;;;11.15;8.27;;;8.30;99.90;;;;;;5016477;28;20203;-82
2021/12/25 06:32:05;;;;;;;9.43;8.30;;;8.30;99.90;;;;;;5019660;28;20250;-82
2021/12/25 06:34:32;;;;;;;12.18;10.60;;;8.30;99.90;;;;;;5003120;28;20204;-81
2021/12/25 06:36:59;;;;;;;15.60;10.30;;;8.20;99.90;;;;;;4999276;28;20220;-82
2021/12/25 06:39:26;;;;;;;12.65;11.35;;;8.30;99.90;;;;;;5015700;28;20203;-82
2021/12/25 06:41:53;;;;;;;13.30;11.48;;;8.40;99.90;;;;;;5018581;28;20651;-81
2021/12/25 06:44:20;;;;;;;14.25;11.00;;;8.40;99.90;;;;;;5002996;28;20200;-82
2021/12/25 06:46:47;;;;;;;13.52;12.10;;;8.40;99.90;;;;;;4999271;28;20211;-82
2021/12/25 06:49:15;;;;;;;19.95;11.82;;;8.30;99.90;;;;;;5014275;28;20207;-82
2021/12/25 06:51:42;;;;;;;12.70;10.93;;;8.30;99.90;;;;;;5018696;28;20210;-82
2021/12/25 06:54:09;;;;;;;16.73;12.10;;;8.30;99.90;;;;;;5018687;28;20214;-81
2021/12/25 06:56:35;;;;;;;15.13;10.98;;;8.30;99.90;;;;;;5019344;28;20210;-82
2021/12/25 06:59:02;;;;;;;12.52;10.13;;;8.40;99.90;;;;;;5007545;28;20207;-82
2021/12/25 07:01:29;;;;;;;12.65;10.93;;;8.40;99.90;;;;;;4998856;28;20218;-82
2021/12/25 07:03:56;;;;;;;16.00;11.70;;;8.30;99.90;;;;;;5009616;28;20254;-80
2021/12/25 07:06:24;;;;;;;12.70;10.70;;;8.40;99.90;;;;;;5013117;28;20208;-81
2021/12/25 07:08:51;;;;;;;11.57;10.32;;;8.30;99.90;;;;;;4998985;28;20208;-81
2021/12/25 07:11:19;;;;;;;14.82;10.35;;;8.30;99.90;;;;;;5014294;28;20206;-82
2021/12/25 07:13:47;;;;;;;14.23;10.65;;;8.30;99.90;;;;;;5018894;28;20242;-81
2021/12/25 07:16:14;;;;;;;15.93;10.77;;;8.40;99.90;;;;;;5008197;28;20230;-81
2021/12/25 07:18:41;;;;;;;16.05;12.55;;;8.50;99.90;;;;;;5018825;28;20838;-82
2021/12/25 07:21:08;;;;;;;12.15;10.40;;;8.50;99.90;;;;;;5004988;28;20293;-82
2021/12/25 07:23:36;;;;;;;14.27;9.68;;;8.50;99.90;;;;;;4998913;28;20238;-82
2021/12/25 07:26:03;;;;;;;12.95;10.63;;;8.60;99.90;;;;;;5007490;28;20210;-82
2021/12/25 07:28:30;;;;;;;9.27;7.60;;;8.40;99.90;;;;;;4998932;28;20212;-82
2021/12/25 07:31:00;;;;;;;9.88;8.88;;;8.40;99.90;;;;;;5008718;28;20207;-82
2021/12/25 07:33:27;;;;;;;9.02;7.18;;;8.40;99.90;;;;;;5018764;28;20259;-82
2021/12/25 07:35:54;;;;;;;9.85;7.10;;;8.30;99.90;;;;;;5011998;28;20688;-82
2021/12/25 07:38:21;;;;;;;6.43;5.80;;;8.30;99.90;;;;;;5018579;28;20231;-82
2021/12/25 07:40:50;;;;;;;8.77;6.07;;;8.30;99.90;;;;;;5010652;28;20231;-82
2021/12/25 07:43:17;;;;;;;8.43;5.65;;;8.40;99.90;;;;;;4998350;28;20224;-82
2021/12/25 07:45:46;;;;;;;10.68;6.00;;;8.40;99.90;;;;;;4982581;28;20216;-81
2021/12/25 07:48:13;;;;;;;6.93;6.22;;;8.40;99.90;;;;;;5018669;28;20210;-82
2021/12/25 07:50:40;;;;;;;6.78;5.55;;;8.50;99.90;;;;;;4999114;28;20212;-82
2021/12/25 07:53:07;;;;;;;7.30;5.65;;;8.50;99.90;;;;;;4998686;28;20231;-83
2021/12/25 07:55:34;;;;;;;8.10;7.03;;;8.60;99.90;;;;;;5015497;28;20585;-82
2021/12/25 07:58:02;;;;;;;8.52;5.60;;;8.50;99.90;;;;;;4998679;28;20229;-83
2021/12/25 08:00:29;;;;;;;6.93;6.22;;;8.50;99.90;;;;;;5014274;28;20283;-82
2021/12/25 08:02:56;;;;;;;6.53;5.90;;;8.50;99.90;;;;;;5017918;28;20239;-82
2021/12/25 08:05:23;;;;;;;10.07;7.82;;;8.50;99.90;;;;;;5001901;28;20211;-80
2021/12/25 08:07:50;;;;;;;7.75;6.88;;;8.50;99.90;;;;;;5019312;28;20208;-80
2021/12/25 08:10:20;;;;;;;7.88;6.25;;;8.40;99.90;;;;;;5007710;28;20579;-81
2021/12/25 08:12:48;;;;;;;12.32;8.60;;;8.30;99.90;;;;;;5006399;28;20259;-82
2021/12/25 08:15:18;;;;;;;8.40;7.60;;;8.40;99.90;;;;;;5002422;28;20215;-82
2021/12/25 08:17:45;;;;;;;10.35;7.57;;;8.30;99.90;;;;;;5018957;28;20230;-81
2021/12/25 08:20:13;;;;;;;12.23;9.15;;;8.30;99.90;;;;;;5009109;28;20574;-82
2021/12/25 08:22:41;;;;;;;10.10;8.48;;;8.30;99.90;;;;;;5001677;28;20255;-82
2021/12/25 08:25:09;;;;;;;11.43;8.63;;;8.40;99.90;;;;;;5013081;28;20214;-82
2021/12/25 08:27:36;;;;;;;15.25;12.07;;;8.40;99.90;;;;;;5005241;28;20196;-82
2021/12/25 08:30:06;;;;;;;10.70;8.07;;;8.50;99.90;;;;;;5011228;28;20214;-83
2021/12/25 08:32:35;;;;;;;12.85;8.65;;;8.50;99.90;;;;;;5022060;28;20226;-82
2021/12/25 08:35:01;;;;;;;12.93;9.15;;;8.60;99.90;;;;;;5012103;28;20697;-82
2021/12/25 08:37:28;;;;;;;12.23;9.70;;;8.70;99.90;;;;;;5016560;28;20219;-83
2021/12/25 08:39:55;;;;;;;13.52;8.85;;;8.70;99.90;;;;;;5013365;28;20203;-82
2021/12/25 08:42:23;;;;;;;10.70;9.57;;;8.80;99.90;;;;;;5001517;28;20227;-83
2021/12/25 08:45:04;;;;;;;10.82;8.60;;;9.00;99.90;;;;;;5012503;28;20268;-82
2021/12/25 08:47:35;;;;;;;14.77;12.68;;;9.00;99.90;;;;;;5006449;28;20235;-82
2021/12/25 08:50:03;;;;;;;10.95;8.77;;;9.00;99.90;;;;;;5013633;28;20200;-81
2021/12/25 08:52:30;;;;;;;11.13;8.00;;;9.10;99.90;;;;;;5020355;28;20227;-81
2021/12/25 08:54:57;;;;;;;12.52;9.25;;;9.10;99.90;;;;;;5008617;28;20598;-81
2021/12/25 08:57:25;;;;;;;13.65;9.45;;;9.10;99.90;;;;;;5014899;28;20231;-82
2021/12/25 08:59:55;;;;;;;12.88;8.02;;;9.20;99.90;;;;;;5009657;28;20215;-83
2021/12/25 09:02:23;;;;;;;8.75;7.90;;;9.30;99.90;;;;;;5002313;28;20308;-82
2021/12/25 09:04:52;;;;;;;11.05;8.13;;;9.30;99.90;;;;;;5011995;28;20204;-83
2021/12/25 09:07:19;;;;;;;12.07;7.88;;;9.20;99.90;;;;;;5009092;28;20208;-81
2021/12/25 09:09:47;;;;;;;9.38;7.72;;;9.30;99.90;;;;;;5020468;28;20962;-80
2021/12/25 09:12:16;;;;;;;11.13;8.30;;;9.40;99.90;;;;;;5017825;28;20358;-81
2021/12/25 09:14:44;;;;;;;10.40;7.30;;;9.30;99.90;;;;;;5001421;28;20581;-80
2021/12/25 09:17:11;;;;;;;9.50;8.15;;;9.30;99.90;;;;;;5013276;28;20208;-81
2021/12/25 09:19:38;;;;;;;7.43;6.72;;;9.30;99.90;;;;;;5021101;28;20215;-81
2021/12/25 09:22:07;;;;;;;11.30;7.70;;;9.40;99.90;;;;;;5000385;28;20225;-80
2021/12/25 09:24:34;;;;;;;9.82;7.55;;;9.30;99.90;;;;;;5001593;28;20209;-81
2021/12/25 09:27:01;;;;;;;9.90;7.80;;;9.30;99.90;;;;;;5005386;28;20211;-82
2021/12/25 09:29:27;;;;;;;8.07;6.85;;;9.40;99.90;;;;;;5007161;28;20212;-82
2021/12/25 09:31:54;;;;;;;8.90;8.10;;;9.40;99.90;;;;;;5009413;28;20671;-82
2021/12/25 09:34:21;;;;;;;11.82;7.30;;;9.40;99.90;;;;;;5000114;28;20840;-82
2021/12/25 09:36:48;;;;;;;9.10;7.10;;;9.40;99.90;;;;;;5017551;28;20211;-81
2021/12/25 09:39:16;;;;;;;10.93;8.30;;;9.30;99.90;;;;;;5016819;28;20228;-82
2021/12/25 09:41:43;;;;;;;9.02;7.43;;;9.50;99.90;;;;;;5011965;28;20234;-82
2021/12/25 09:44:10;;;;;;;6.75;6.10;;;9.50;99.90;;;;;;5005764;28;20204;-82
2021/12/25 09:46:37;;;;;;;7.97;5.60;;;9.50;99.90;;;;;;4996862;28;20238;-81
2021/12/25 09:49:04;;;;;;;7.20;6.47;;;9.60;99.90;;;;;;4996760;28;20203;-82
2021/12/25 09:51:31;;;;;;;5.82;4.97;;;9.50;99.90;;;;;;4995868;28;20208;-82
2021/12/25 09:53:59;;;;;;;5.68;4.50;;;9.60;99.90;;;;;;4998235;28;20246;-83
2021/12/25 09:56:28;;;;;;;6.47;5.88;;;9.60;99.90;;;;;;5000348;28;20211;-81
2021/12/25 09:59:04;;;;;;;6.68;5.72;;;9.50;99.90;;;;;;5007476;28;20228;-84
2021/12/25 10:10:08;;;;;;;5.32;4.82;;;9.40;99.90;;;;;;5014617;28;20204;-84
2021/12/25 10:12:41;;;;;;;3.63;3.28;;;9.40;99.90;;;;;;5043969;28;20299;-84
2021/12/25 10:17:55;;;;;;;4.05;3.65;;;9.40;99.90;;;;;;5022105;28;20685;-82
2021/12/25 10:20:24;;;;;;;4.10;3.80;;;9.40;99.90;;;;;;5033917;28;20222;-81
2021/12/25 10:23:08;;;;;;;4.20;3.42;;;9.30;99.90;;;;;;5047336;28;20226;-81
2021/12/25 10:25:43;;;;;;;4.55;3.92;;;9.30;99.90;;;;;;5048945;28;20675;-81
2021/12/25 10:28:12;;;;;;;5.18;3.80;;;9.20;99.90;;;;;;5057685;28;20261;-81
2021/12/25 10:30:47;;;;;;;4.32;3.85;;;9.10;99.90;;;;;;5057153;28;20206;-81
2021/12/25 10:33:33;;;;;;;6.60;4.90;;;9.20;99.90;;;;;;5045940;28;20311;-82
2021/12/25 10:36:02;;;;;;;3.05;2.55;;;9.30;99.90;;;;;;5047191;28;20197;-81
2021/12/25 10:38:30;;;;;;;2.35;2.25;;;9.30;99.90;;;;;;5051664;28;20699;-83
2021/12/25 10:41:17;;;;;;;5.10;2.20;;;9.30;99.90;;;;;;5057231;28;20202;-82
2021/12/25 10:43:47;;;;;;;2.50;2.30;;;9.20;99.90;;;;;;5056629;28;20226;-80
2021/12/25 10:46:14;;;;;;;2.15;1.95;;;9.10;99.90;;;;;;5056773;28;20270;-81
2021/12/25 10:48:41;;;;;;;2.35;1.70;;;9.20;99.90;;;;;;5018808;28;20199;-83
2021/12/25 10:51:26;;;;;;;2.28;2.00;;;9.30;99.90;;;;;;5017522;28;20212;-82
2021/12/25 10:53:59;;;;;;;1.30;1.30;;;9.60;99.90;;;;;;5018774;28;20231;-84
2021/12/25 10:56:35;;;;;;;2.30;2.10;;;9.80;99.90;;;;;;5018681;28;20590;-83
2021/12/25 10:59:07;;;;;;;7.65;2.72;;;10.10;99.90;;;;;;5053315;28;20232;-85
2021/12/25 11:01:38;;;;;;;2.05;1.95;;;10.30;99.90;;;;;;5053977;28;20202;-83
2021/12/25 11:04:06;;;;;;;2.20;1.80;;;10.50;99.90;;;;;;5035992;28;20280;-81
2021/12/25 11:06:41;;;;;;;2.43;2.23;;;10.80;99.90;;;;;;5035227;28;20470;-80
2021/12/25 11:09:09;;;;;;;2.43;1.87;;;11.30;99.90;;;;;;5054499;28;20453;-79
2021/12/25 11:11:36;;;;;;;2.20;2.07;;;11.60;99.90;;;;;;5046440;28;20462;-81
2021/12/25 11:14:07;;;;;;;2.73;1.50;;;12.00;99.90;;;;;;5036338;28;20448;-79
2021/12/25 11:16:38;;;;;;;1.97;1.77;;;12.20;99.90;;;;;;5053104;28;20836;-79
2021/12/25 11:19:09;;;;;;;2.30;2.10;;;12.10;99.90;;;;;;5055613;28;20491;-80
2021/12/25 11:21:38;;;;;;;3.13;2.83;;;12.10;99.90;;;;;;5063923;28;20456;-80
2021/12/25 11:24:12;;;;;;;2.50;2.30;;;12.10;99.90;;;;;;5064802;28;20457;-80
2021/12/25 11:26:40;;;;;;;2.20;1.77;;;11.90;99.90;;;;;;5063913;28;20472;-80
2021/12/25 11:29:11;;;;;;;2.00;1.90;;;11.40;99.90;;;;;;5064177;28;20451;-80
2021/12/25 11:31:38;;;;;;;1.10;1.00;;;11.10;99.90;;;;;;5060258;28;20452;-79
2021/12/25 11:34:06;;;;;;;1.42;1.33;;;10.80;99.90;;;;;;5055307;28;20972;-79
2021/12/25 11:36:34;;;;;;;1.40;1.00;;;10.50;99.90;;;;;;5055291;28;20208;-79
2021/12/25 11:39:00;;;;;;;0.93;0.93;;;10.20;99.90;;;;;;5056360;28;20489;-79
2021/12/25 11:41:30;;;;;;;1.38;1.10;;;10.10;99.90;;;;;;5058570;28;20462;-79
2021/12/25 11:43:57;;;;;;;1.40;1.23;;;10.00;99.90;;;;;;5059139;28;20234;-79
2021/12/25 11:46:37;;;;;;;1.77;1.42;;;9.80;99.90;;;;;;5057377;28;20225;-79
2021/12/25 11:49:07;;;;;;;1.90;1.33;;;9.70;99.90;;;;;;5058813;28;20205;-81
2021/12/25 11:51:34;;;;;;;2.10;1.73;;;9.70;99.90;;;;;;5067100;28;20207;-81
2021/12/25 11:54:15;;;;;;;1.77;1.50;;;9.60;99.90;;;;;;5067463;28;20209;-80
2021/12/25 11:57:02;;;;;;;2.47;1.58;;;9.60;99.90;;;;;;5068268;28;20214;-80
2021/12/25 11:59:43;;;;;;;1.40;1.30;;;9.60;99.90;;;;;;5065770;28;20226;-80
2021/12/25 12:02:11;;;;;;;1.80;1.67;;;9.70;99.90;;;;;;5058206;28;20734;-79
2021/12/25 12:04:38;;;;;;;1.73;1.63;;;9.70;99.90;;;;;;5059126;28;20237;-79
2021/12/25 12:07:12;;;;;;;1.30;1.20;;;9.80;99.90;;;;;;5059788;28;20226;-79
2021/12/25 12:09:54;;;;;;;2.10;1.80;;;9.70;99.90;;;;;;5074021;28;20449;-78
2021/12/25 12:12:23;;;;;;;2.25;1.88;;;9.70;99.90;;;;;;5064173;28;20363;-79
2021/12/25 12:15:12;;;;;;;1.63;1.52;;;9.70;99.90;;;;;;5058938;28;20208;-79
2021/12/25 12:17:41;;;;;;;4.82;4.38;;;9.80;99.90;;;;;;5058852;28;20219;-79
2021/12/25 12:20:10;;;;;;;2.22;2.03;;;9.90;99.90;;;;;;5058517;28;20228;-79
2021/12/25 12:23:02;;;;;;;2.15;1.95;;;10.00;99.90;;;;;;5058821;28;20773;-79
2021/12/25 12:28:11;;;;;;;10.87;9.63;;;10.10;99.90;;;;;;5045316;28;20202;-79
2021/12/25 12:30:51;;;;;;;8.75;6.60;;;10.30;99.90;;;;;;5057924;28;20450;-79
2021/12/25 12:33:36;;;;;;;1.97;1.80;;;10.60;99.90;;;;;;5058414;28;20229;-79
2021/12/25 12:36:05;;;;;;;1.70;1.60;;;10.50;99.90;;;;;;5063521;28;20920;-80
2021/12/25 12:38:39;;;;;;;1.83;1.70;;;10.70;99.90;;;;;;5036536;28;20611;-80
2021/12/25 12:41:22;;;;;;;2.85;1.83;;;10.70;99.90;;;;;;5065166;28;20203;-80
2021/12/25 12:43:59;;;;;;;1.65;1.55;;;10.70;99.90;;;;;;5049814;28;20225;-81
2021/12/25 12:46:58;;;;;;;3.25;2.90;;;10.60;99.90;;;;;;5025330;28;20216;-80
2021/12/25 12:49:29;;;;;;;3.33;3.03;;;10.50;99.90;;;;;;5038525;28;20255;-82
2021/12/25 12:52:16;;;;;;;3.87;2.40;;;10.30;99.90;;;;;;5045748;28;20259;-80
2021/12/25 12:54:45;;;;;;;2.53;2.33;;;10.40;99.90;;;;;;5061466;28;20477;-83
2021/12/25 12:57:18;;;;;;;3.50;2.17;;;10.50;99.90;;;;;;5063800;28;20456;-79
2021/12/25 12:59:45;;;;;;;2.35;2.10;;;10.60;99.90;;;;;;5048829;28;20224;-80
2021/12/25 13:02:13;;;;;;;1.80;1.70;;;10.40;99.90;;;;;;5047118;28;20225;-78
2021/12/25 13:04:46;;;;;;;1.45;1.35;;;10.40;99.90;;;;;;5053569;28;20246;-80
2021/12/25 13:07:14;;;;;;;2.13;1.93;;;10.40;99.90;;;;;;5062348;28;20222;-80
2021/12/25 13:09:46;;;;;;;2.10;2.00;;;10.30;99.90;;;;;;5049667;28;20453;-80
2021/12/25 13:12:29;;;;;;;2.55;2.35;;;10.50;99.90;;;;;;5042936;28;20232;-83
2021/12/25 13:15:06;;;;;;;2.33;2.13;;;10.60;99.90;;;;;;5058304;28;20210;-81
2021/12/25 13:17:33;;;;;;;2.05;1.95;;;10.60;99.90;;;;;;5065197;28;20635;-81
2021/12/25 13:20:01;;;;;;;27.52;24.63;;;10.70;99.90;;;;;;5051180;28;20224;-81
2021/12/25 13:22:28;;;;;;;4.63;4.23;;;10.70;99.90;;;;;;5045259;28;20243;-81
2021/12/25 13:25:05;;;;;;;1.83;1.30;;;10.60;99.90;;;;;;5058558;28;20453;-80
2021/12/25 13:27:32;;;;;;;1.63;1.20;;;10.50;99.90;;;;;;5065278;28;20457;-81
2021/12/25 13:30:06;;;;;;;2.58;2.05;;;10.60;99.90;;;;;;5050815;28;20457;-80
2021/12/25 13:32:33;;;;;;;1.37;1.27;;;10.60;99.90;;;;;;5048373;28;20231;-81
2021/12/25 13:35:01;;;;;;;2.10;1.27;;;10.70;99.90;;;;;;5064273;28;20442;-82
2021/12/25 13:37:34;;;;;;;1.60;1.50;;;10.70;99.90;;;;;;5058666;28;20206;-85
2021/12/25 13:40:00;;;;;;;1.90;1.33;;;10.70;99.90;;;;;;5044490;28;20224;-84
2021/12/25 13:45:41;;;;;;;1.80;1.70;;;10.80;99.90;;;;;;3157742;26;20278;-86
2021/12/25 13:48:15;;;;;;;1.95;1.80;;;10.50;99.90;;;;;;4947959;29;20299;-82
2021/12/25 13:51:32;;;;;;;2.00;1.90;;;10.60;99.90;;;;;;4922193;29;20206;-84
2021/12/25 14:09:15;;;;;;;2.47;2.28;;;11.10;99.90;;;;;;3957235;23;20496;-81
2021/12/25 14:11:49;;;;;;;1.80;1.70;;;11.20;99.90;;;;;;5001426;28;20224;-81
2021/12/25 14:14:18;;;;;;;2.50;2.20;;;11.20;99.90;;;;;;5000504;28;20454;-81
2021/12/25 14:16:44;;;;;;;2.60;2.50;;;11.10;99.90;;;;;;5001761;28;20483;-81
2021/12/25 14:19:13;;;;;;;2.50;2.40;;;11.00;99.90;;;;;;5001530;28;20222;-81
2021/12/25 14:21:41;;;;;;;2.33;2.20;;;10.80;99.90;;;;;;5000668;28;20549;-81
2021/12/25 14:24:15;;;;;;;2.67;2.45;;;10.80;99.90;;;;;;5001993;28;20202;-81
2021/12/25 14:26:42;;;;;;;3.43;3.13;;;10.80;99.90;;;;;;5001164;28;20732;-81